Time;durP1;ratioP1;P1;durP2;ratioP2;P2;SDS_P1;SDS_P2;PMS_P1;PMS_P2;Temp;Humidity;BMP_temperature;BMP_pressure;BME280_temperature;BME280_humidity;BME280_pressure;Samples;Min_cycle;Max_cycle;Signal;HPM_P1;HPM_P2
2023/05/21 00:01:15;;;;;;;6.35;4.07;;;16.00;99.90;;;;;;4998035;28;20038;-79
2023/05/21 00:03:44;;;;;;;5.40;4.05;;;15.20;99.90;;;;;;5014248;28;20421;-79
2023/05/21 00:06:12;;;;;;;7.00;4.05;;;15.20;99.90;;;;;;5021052;28;20068;-79
2023/05/21 00:08:38;;;;;;;6.57;4.32;;;15.40;99.90;;;;;;4994690;28;20046;-79
2023/05/21 00:11:05;;;;;;;5.97;3.95;;;15.00;99.90;;;;;;5009880;28;20422;-79
2023/05/21 00:13:31;;;;;;;8.10;4.22;;;15.10;99.90;;;;;;4981645;28;20529;-79
2023/05/21 00:15:57;;;;;;;7.07;4.18;;;15.80;99.90;;;;;;5015132;28;20114;-79
2023/05/21 00:18:24;;;;;;;7.30;4.00;;;15.70;99.90;;;;;;5016221;28;20042;-79
2023/05/21 00:20:50;;;;;;;5.97;3.88;;;15.10;99.90;;;;;;5015254;28;20045;-79
2023/05/21 00:23:17;;;;;;;7.72;3.97;;;15.10;99.90;;;;;;5002462;28;20548;-79
2023/05/21 00:25:44;;;;;;;5.90;3.80;;;15.10;99.90;;;;;;5014301;28;20044;-79
2023/05/21 00:28:09;;;;;;;5.90;4.13;;;15.40;99.90;;;;;;5014677;28;20513;-78
2023/05/21 00:30:35;;;;;;;8.38;4.10;;;15.40;99.90;;;;;;5022463;28;20486;-78
2023/05/21 00:33:01;;;;;;;8.20;4.75;;;15.00;99.90;;;;;;4980453;28;20133;-79
2023/05/21 00:35:28;;;;;;;6.95;4.32;;;15.00;99.90;;;;;;4981738;28;20052;-78
2023/05/21 00:37:53;;;;;;;6.97;4.30;;;15.20;99.90;;;;;;5010427;28;20045;-78
2023/05/21 00:40:19;;;;;;;7.63;4.78;;;15.50;99.90;;;;;;5008592;28;20402;-78
2023/05/21 00:42:46;;;;;;;6.45;4.32;;;15.00;99.90;;;;;;4983217;28;20073;-78
2023/05/21 00:45:13;;;;;;;9.48;4.50;;;15.20;99.90;;;;;;5013810;28;20052;-78
2023/05/21 00:47:40;;;;;;;5.30;4.00;;;15.90;99.90;;;;;;4997538;28;20474;-78
2023/05/21 00:50:07;;;;;;;8.90;4.55;;;15.10;99.90;;;;;;5018460;28;20046;-78
2023/05/21 00:52:40;;;;;;;6.72;4.25;;;15.00;99.90;;;;;;4997057;28;20041;-78
2023/05/21 00:55:07;;;;;;;9.57;4.47;;;15.00;99.90;;;;;;5014499;28;20049;-78
2023/05/21 00:57:35;;;;;;;8.10;4.30;;;15.00;99.90;;;;;;4996651;28;20042;-78
2023/05/21 01:00:06;;;;;;;8.13;4.97;;;15.50;99.90;;;;;;4996430;28;20092;-79
2023/05/21 01:02:33;;;;;;;6.60;4.32;;;15.00;99.90;;;;;;4996410;28;20499;-80
2023/05/21 01:04:59;;;;;;;7.78;4.75;;;15.00;99.90;;;;;;4996114;28;20042;-79
2023/05/21 01:07:25;;;;;;;7.28;4.40;;;15.10;99.90;;;;;;5020642;28;20036;-78
2023/05/21 01:09:53;;;;;;;7.72;4.70;;;15.80;99.90;;;;;;4998389;28;20045;-79
2023/05/21 01:12:20;;;;;;;7.25;4.55;;;15.00;99.90;;;;;;4979736;28;20038;-79
2023/05/21 01:14:47;;;;;;;6.10;4.53;;;15.30;99.90;;;;;;4979512;28;20386;-80
2023/05/21 01:17:13;;;;;;;9.52;4.93;;;14.90;99.90;;;;;;4980388;28;20512;-78
2023/05/21 01:19:40;;;;;;;9.70;4.63;;;15.60;99.90;;;;;;4999877;28;20042;-79
2023/05/21 01:22:07;;;;;;;5.90;4.43;;;14.90;99.90;;;;;;4996073;28;20525;-79
2023/05/21 01:24:33;;;;;;;7.38;4.90;;;15.20;99.90;;;;;;4998887;28;20068;-79
2023/05/21 01:27:01;;;;;;;7.20;4.28;;;14.90;99.90;;;;;;5004198;28;20048;-79
2023/05/21 01:29:27;;;;;;;6.53;4.30;;;15.30;99.90;;;;;;4995794;28;20045;-78
2023/05/21 01:32:21;;;;;;;9.63;4.93;;;15.10;99.90;;;;;;4980164;28;20037;-79
2023/05/21 01:35:19;;;;;;;7.22;4.55;;;14.90;99.90;;;;;;4994993;28;20096;-79
2023/05/21 01:37:56;;;;;;;7.28;4.25;;;15.10;99.90;;;;;;5005906;28;20046;-78
2023/05/21 01:40:33;;;;;;;8.02;4.53;;;15.60;99.90;;;;;;4980026;28;20042;-78
2023/05/21 01:43:04;;;;;;;6.10;4.32;;;14.90;99.90;;;;;;4995971;28;20034;-79
2023/05/21 01:45:32;;;;;;;8.52;4.57;;;14.90;99.90;;;;;;4995852;28;20422;-79
2023/05/21 01:47:57;;;;;;;9.52;4.75;;;14.90;99.90;;;;;;5001904;28;20076;-79
2023/05/21 01:50:24;;;;;;;9.82;4.68;;;15.50;99.90;;;;;;4995768;28;20077;-79
2023/05/21 01:52:57;;;;;;;8.85;4.32;;;14.80;99.90;;;;;;4995910;28;20410;-79
2023/05/21 01:55:25;;;;;;;8.52;4.55;;;14.70;99.90;;;;;;4979353;28;20088;-78
2023/05/21 01:57:52;;;;;;;8.35;4.80;;;15.80;99.90;;;;;;4979472;28;20044;-78
2023/05/21 02:00:22;;;;;;;6.47;4.35;;;14.70;99.90;;;;;;5013657;28;20037;-79
2023/05/21 02:02:49;;;;;;;7.35;4.60;;;14.80;99.90;;;;;;4980027;28;20052;-79
2023/05/21 02:05:15;;;;;;;7.93;4.72;;;15.10;99.90;;;;;;4978998;28;20037;-79
2023/05/21 02:07:42;;;;;;;8.60;4.85;;;15.50;99.90;;;;;;4996111;28;20069;-79
2023/05/21 02:10:09;;;;;;;7.55;4.70;;;14.80;99.90;;;;;;4979893;28;20044;-78
2023/05/21 02:12:35;;;;;;;9.07;4.90;;;14.70;99.90;;;;;;4995306;28;20080;-78
2023/05/21 02:15:01;;;;;;;10.32;4.68;;;14.70;99.90;;;;;;4983650;28;20034;-78
2023/05/21 02:17:30;;;;;;;7.60;4.45;;;15.50;99.90;;;;;;5018758;28;20042;-78
2023/05/21 02:19:56;;;;;;;7.90;4.28;;;14.70;99.90;;;;;;4981998;28;20053;-78
2023/05/21 02:22:21;;;;;;;8.27;4.93;;;14.70;99.90;;;;;;5008823;28;20027;-79
2023/05/21 02:24:48;;;;;;;7.10;4.40;;;15.20;99.90;;;;;;4984767;28;20433;-79
2023/05/21 02:27:16;;;;;;;8.20;4.80;;;14.60;99.90;;;;;;4989461;28;20071;-79
2023/05/21 02:29:42;;;;;;;7.93;4.70;;;14.60;99.90;;;;;;4978560;28;20053;-79
2023/05/21 02:32:08;;;;;;;8.25;4.47;;;14.60;99.90;;;;;;4972232;28;20430;-78
2023/05/21 02:34:36;;;;;;;6.85;4.32;;;14.60;99.90;;;;;;4994700;28;20496;-78
2023/05/21 02:37:01;;;;;;;8.70;4.97;;;15.30;99.90;;;;;;5012456;28;20045;-78
2023/05/21 02:39:27;;;;;;;7.53;4.63;;;14.70;99.90;;;;;;4994357;28;20045;-78
2023/05/21 02:41:52;;;;;;;12.15;4.68;;;15.10;99.90;;;;;;4978348;28;20458;-78
2023/05/21 02:44:19;;;;;;;6.88;4.25;;;15.50;99.90;;;;;;4994606;28;20125;-78
2023/05/21 02:46:45;;;;;;;8.50;4.70;;;15.20;99.90;;;;;;4994506;28;20038;-78
2023/05/21 02:49:11;;;;;;;9.13;5.03;;;14.60;99.90;;;;;;5012821;28;20124;-79
2023/05/21 02:51:36;;;;;;;7.97;4.45;;;14.60;99.90;;;;;;4999995;28;20049;-79
2023/05/21 02:54:02;;;;;;;9.13;4.72;;;14.60;99.90;;;;;;4987736;28;20042;-79
2023/05/21 02:56:28;;;;;;;10.15;5.00;;;14.60;99.90;;;;;;5007948;28;20207;-79
2023/05/21 02:58:54;;;;;;;9.88;4.72;;;14.60;99.90;;;;;;4977690;28;20128;-79
2023/05/21 03:01:20;;;;;;;7.88;4.50;;;15.00;99.90;;;;;;4995093;28;20034;-79
2023/05/21 03:03:45;;;;;;;8.27;4.32;;;14.60;99.90;;;;;;5012262;28;20073;-79
2023/05/21 03:06:11;;;;;;;7.97;5.15;;;14.90;99.90;;;;;;4997826;28;20038;-78
2023/05/21 03:08:37;;;;;;;7.38;4.63;;;14.60;99.90;;;;;;4979772;28;20049;-79
2023/05/21 03:11:03;;;;;;;8.13;4.97;;;14.60;99.90;;;;;;4994817;28;20049;-79
2023/05/21 03:13:29;;;;;;;6.95;4.45;;;14.60;99.90;;;;;;4995195;28;20053;-79
2023/05/21 03:15:56;;;;;;;7.05;4.78;;;14.20;99.90;;;;;;4979764;28;20460;-79
2023/05/21 03:18:22;;;;;;;6.72;4.63;;;14.60;99.90;;;;;;4978296;28;20133;-79
2023/05/21 03:20:48;;;;;;;9.30;5.05;;;14.60;99.90;;;;;;5012500;28;20041;-79
2023/05/21 03:23:14;;;;;;;6.95;5.00;;;14.50;99.90;;;;;;4981534;28;20042;-79
2023/05/21 03:25:40;;;;;;;10.75;5.35;;;14.30;99.90;;;;;;4978243;28;20049;-79
2023/05/21 03:28:06;;;;;;;8.52;5.10;;;14.70;99.90;;;;;;4994295;28;20133;-79
2023/05/21 03:30:32;;;;;;;9.88;5.18;;;15.30;99.90;;;;;;5017570;28;20060;-79
2023/05/21 03:32:58;;;;;;;8.20;5.25;;;15.20;99.90;;;;;;4995701;28;20030;-79
2023/05/21 03:35:24;;;;;;;9.20;5.07;;;15.30;99.90;;;;;;5009240;28;20073;-79
2023/05/21 03:37:51;;;;;;;12.50;5.10;;;15.10;99.90;;;;;;5012326;28;20042;-78
2023/05/21 03:40:16;;;;;;;9.68;5.30;;;14.50;99.90;;;;;;5011240;28;20073;-79
2023/05/21 03:42:43;;;;;;;10.40;5.40;;;14.90;99.90;;;;;;4999342;28;20486;-79
2023/05/21 03:45:10;;;;;;;9.13;5.03;;;13.90;99.90;;;;;;4992038;28;20049;-79
2023/05/21 03:47:36;;;;;;;10.68;5.70;;;14.50;99.90;;;;;;5008502;28;20045;-79
2023/05/21 03:50:02;;;;;;;10.55;5.15;;;14.50;99.90;;;;;;4981905;28;20042;-79
2023/05/21 03:52:27;;;;;;;9.98;5.32;;;14.80;99.90;;;;;;5019695;28;20083;-79
2023/05/21 03:54:53;;;;;;;8.85;5.63;;;15.40;99.90;;;;;;4995551;28;20042;-79
2023/05/21 03:57:18;;;;;;;10.75;5.53;;;15.40;99.90;;;;;;4998725;28;20482;-79
2023/05/21 03:59:44;;;;;;;8.57;5.43;;;15.40;99.90;;;;;;5011539;28;20068;-79
2023/05/21 04:02:10;;;;;;;8.40;5.80;;;15.20;99.90;;;;;;5015008;28;20089;-79
2023/05/21 04:04:37;;;;;;;11.68;6.32;;;15.20;99.90;;;;;;5011520;28;20041;-79
2023/05/21 04:07:03;;;;;;;10.48;5.68;;;14.70;99.90;;;;;;4978045;28;20069;-78
2023/05/21 04:09:29;;;;;;;11.55;5.75;;;14.50;99.90;;;;;;4994067;28;20052;-78
2023/05/21 04:11:55;;;;;;;10.60;5.80;;;14.10;99.90;;;;;;4996519;28;20046;-78
2023/05/21 04:14:24;;;;;;;8.40;5.32;;;14.50;99.90;;;;;;4982152;28;20049;-78
2023/05/21 04:16:49;;;;;;;11.15;5.82;;;14.50;99.90;;;;;;5011693;28;20100;-78
2023/05/21 04:19:16;;;;;;;9.07;5.40;;;15.20;99.90;;;;;;4993615;28;20426;-79
2023/05/21 04:21:43;;;;;;;10.85;6.35;;;14.40;99.90;;;;;;4977850;28;20085;-79
2023/05/21 04:24:09;;;;;;;10.15;5.82;;;15.30;99.90;;;;;;4994448;28;20049;-79
2023/05/21 04:26:35;;;;;;;10.27;6.60;;;14.50;99.90;;;;;;4997108;28;20045;-80
2023/05/21 04:29:03;;;;;;;10.20;5.95;;;15.10;99.90;;;;;;5011051;28;20410;-78
2023/05/21 04:31:32;;;;;;;9.45;5.53;;;15.20;99.90;;;;;;5006120;28;20124;-80
2023/05/21 04:33:59;;;;;;;11.25;5.70;;;14.50;99.90;;;;;;4992888;28;20052;-80
2023/05/21 04:36:27;;;;;;;11.10;6.43;;;14.50;99.90;;;;;;4976995;28;20428;-79
2023/05/21 04:38:54;;;;;;;10.38;6.05;;;15.40;99.90;;;;;;4969312;28;20069;-79
2023/05/21 04:41:20;;;;;;;9.02;5.75;;;14.50;99.90;;;;;;4980578;28;20034;-80
2023/05/21 04:43:46;;;;;;;12.13;6.47;;;14.70;99.90;;;;;;5014054;28;20036;-79
2023/05/21 04:46:12;;;;;;;10.05;6.00;;;14.70;99.90;;;;;;4996269;28;20088;-79
2023/05/21 04:48:39;;;;;;;9.40;5.80;;;15.10;99.90;;;;;;4999111;28;20374;-79
2023/05/21 04:51:05;;;;;;;9.98;5.68;;;14.60;99.90;;;;;;4994228;28;20045;-79
2023/05/21 04:53:32;;;;;;;10.57;6.10;;;14.60;99.90;;;;;;5021710;28;20045;-79
2023/05/21 04:55:58;;;;;;;9.95;6.28;;;14.60;99.90;;;;;;5000830;28;20139;-79
2023/05/21 04:58:25;;;;;;;9.05;5.63;;;14.60;99.90;;;;;;5013994;28;20038;-80
2023/05/21 05:00:52;;;;;;;10.82;6.13;;;14.70;99.90;;;;;;4997161;28;20034;-79
2023/05/21 05:03:18;;;;;;;9.43;5.00;;;14.60;99.90;;;;;;5020216;28;20038;-80
2023/05/21 05:05:43;;;;;;;10.02;6.05;;;14.60;99.90;;;;;;5013051;28;20447;-78
2023/05/21 05:08:10;;;;;;;11.18;5.47;;;14.60;99.90;;;;;;4984711;28;20045;-79
2023/05/21 05:10:37;;;;;;;9.10;5.78;;;14.60;99.90;;;;;;5015186;28;20042;-79
2023/05/21 05:13:02;;;;;;;10.65;5.65;;;14.60;99.90;;;;;;5017800;28;20364;-79
2023/05/21 05:15:28;;;;;;;8.75;5.70;;;14.60;99.90;;;;;;5005565;28;20045;-80
2023/05/21 05:17:55;;;;;;;11.65;5.95;;;15.20;99.90;;;;;;4996441;28;20274;-79
2023/05/21 05:20:21;;;;;;;8.55;5.60;;;14.60;99.90;;;;;;5013302;28;20042;-79
2023/05/21 05:22:46;;;;;;;9.60;6.18;;;14.70;99.90;;;;;;4999048;28;20363;-78
2023/05/21 05:25:12;;;;;;;11.70;5.30;;;14.60;99.90;;;;;;5013463;28;20157;-78
2023/05/21 05:27:37;;;;;;;11.85;6.03;;;15.20;99.90;;;;;;5010176;28;20034;-80
2023/05/21 05:30:03;;;;;;;10.07;5.65;;;15.50;99.90;;;;;;4995387;28;20038;-80
2023/05/21 05:32:29;;;;;;;9.50;5.63;;;14.70;99.90;;;;;;4977207;28;20395;-79
2023/05/21 05:34:55;;;;;;;11.52;6.05;;;15.00;99.90;;;;;;4995705;28;20045;-78
2023/05/21 05:37:20;;;;;;;9.00;5.43;;;14.70;99.90;;;;;;4993456;28;20029;-79
2023/05/21 05:39:46;;;;;;;10.75;5.45;;;14.70;99.90;;;;;;5000634;28;20045;-78
2023/05/21 05:42:12;;;;;;;9.27;5.70;;;14.70;99.90;;;;;;4980355;28;20058;-78
2023/05/21 05:44:37;;;;;;;9.02;5.50;;;15.30;99.90;;;;;;5018330;28;20041;-78
2023/05/21 05:47:07;;;;;;;10.52;5.40;;;14.90;99.90;;;;;;5014637;28;20073;-78
2023/05/21 05:49:33;;;;;;;7.63;5.55;;;14.80;99.90;;;;;;4982083;28;20042;-78
2023/05/21 05:51:59;;;;;;;9.98;5.45;;;15.70;99.90;;;;;;5009265;28;20032;-80
2023/05/21 05:54:25;;;;;;;9.93;5.07;;;14.80;99.90;;;;;;5001273;28;20046;-80
2023/05/21 05:56:51;;;;;;;9.63;5.50;;;14.80;99.90;;;;;;4998420;28;20512;-79
2023/05/21 05:59:16;;;;;;;9.88;5.30;;;14.90;99.90;;;;;;4996827;28;20463;-79
2023/05/21 06:01:42;;;;;;;7.65;5.20;;;15.80;99.90;;;;;;4980295;28;20030;-79
2023/05/21 06:04:07;;;;;;;9.85;5.60;;;15.50;99.90;;;;;;4990585;28;20556;-80
2023/05/21 06:06:35;;;;;;;10.63;5.90;;;15.60;99.90;;;;;;5014753;28;20129;-77
2023/05/21 06:09:01;;;;;;;8.48;5.50;;;15.00;99.90;;;;;;4994509;28;20994;-78
2023/05/21 06:11:28;;;;;;;12.68;5.50;;;15.90;99.90;;;;;;4977010;28;20372;-78
2023/05/21 06:13:53;;;;;;;10.38;5.18;;;15.20;99.90;;;;;;4999514;28;20481;-78
2023/05/21 06:16:19;;;;;;;8.02;5.15;;;15.30;99.90;;;;;;4978853;28;20041;-78
2023/05/21 06:18:45;;;;;;;8.63;4.82;;;15.60;99.90;;;;;;4987235;28;20046;-78
2023/05/21 06:21:10;;;;;;;7.45;4.45;;;15.40;99.90;;;;;;4973701;28;20037;-79
2023/05/21 06:23:36;;;;;;;8.75;5.03;;;15.20;99.90;;;;;;4994824;28;20034;-80
2023/05/21 06:26:03;;;;;;;9.13;5.10;;;15.70;99.90;;;;;;4980400;28;20092;-78
2023/05/21 06:28:30;;;;;;;9.88;4.68;;;15.30;99.90;;;;;;4978982;28;20050;-78
2023/05/21 06:30:57;;;;;;;12.35;5.40;;;15.40;99.90;;;;;;4974961;28;20069;-79
2023/05/21 06:33:23;;;;;;;8.88;4.85;;;15.40;99.90;;;;;;4992040;28;20072;-82
2023/05/21 06:35:49;;;;;;;7.85;4.70;;;15.40;99.90;;;;;;4978377;28;20061;-78
2023/05/21 06:38:16;;;;;;;7.63;4.85;;;15.50;99.90;;;;;;5009488;28;20030;-79
2023/05/21 06:40:46;;;;;;;8.23;4.32;;;15.80;99.90;;;;;;4995411;28;20034;-78
2023/05/21 06:43:12;;;;;;;9.10;4.75;;;15.60;99.90;;;;;;4989531;28;20050;-77
2023/05/21 06:45:38;;;;;;;9.45;4.68;;;16.40;99.90;;;;;;4977993;28;20049;-79
2023/05/21 06:48:03;;;;;;;9.18;5.13;;;15.60;99.90;;;;;;4986130;28;20482;-80
2023/05/21 06:50:29;;;;;;;7.90;5.22;;;15.70;99.90;;;;;;4997008;28;20041;-79
2023/05/21 06:52:56;;;;;;;8.80;4.60;;;15.80;99.90;;;;;;4997544;28;20049;-80
2023/05/21 06:55:22;;;;;;;9.25;5.00;;;16.50;99.90;;;;;;4991459;28;20137;-79
2023/05/21 06:57:48;;;;;;;9.32;4.93;;;15.80;99.90;;;;;;4981077;28;20076;-79
2023/05/21 07:00:14;;;;;;;9.27;4.95;;;16.60;99.90;;;;;;4992260;28;20041;-79
2023/05/21 07:02:39;;;;;;;12.18;5.07;;;16.00;99.90;;;;;;5006480;28;20045;-78
2023/05/21 07:05:05;;;;;;;9.80;4.90;;;16.70;99.90;;;;;;5011452;28;20045;-80
2023/05/21 07:07:33;;;;;;;10.45;4.70;;;16.10;99.90;;;;;;4974399;28;20122;-79
2023/05/21 07:09:59;;;;;;;8.48;4.68;;;16.10;99.90;;;;;;4987950;28;20056;-79
2023/05/21 07:12:27;;;;;;;8.30;4.50;;;16.10;99.90;;;;;;4966586;28;20113;-79
2023/05/21 07:14:53;;;;;;;8.00;4.82;;;16.20;99.90;;;;;;4973645;28;20034;-79
2023/05/21 07:17:18;;;;;;;8.60;5.22;;;16.30;99.90;;;;;;4972565;28;20053;-80
2023/05/21 07:19:44;;;;;;;8.85;5.00;;;16.90;99.90;;;;;;4999788;28;20042;-79
2023/05/21 07:22:11;;;;;;;8.05;4.70;;;16.40;99.90;;;;;;4991742;28;20041;-79
2023/05/21 07:24:37;;;;;;;9.23;5.15;;;16.70;99.90;;;;;;4979619;28;20045;-78
2023/05/21 07:27:03;;;;;;;9.27;4.75;;;16.50;99.90;;;;;;4993983;28;20033;-78
2023/05/21 07:29:29;;;;;;;8.88;5.00;;;16.50;99.90;;;;;;4977383;28;20088;-77
2023/05/21 07:31:54;;;;;;;7.70;4.75;;;16.50;99.90;;;;;;5012170;28;20069;-78
2023/05/21 07:34:20;;;;;;;11.50;4.72;;;16.60;99.90;;;;;;4990983;28;20537;-79
2023/05/21 07:36:46;;;;;;;10.63;5.10;;;16.80;99.90;;;;;;4995256;28;20113;-79
2023/05/21 07:39:13;;;;;;;10.10;5.13;;;16.70;99.90;;;;;;4976702;28;20103;-79
2023/05/21 07:41:41;;;;;;;8.48;4.28;;;16.70;99.90;;;;;;4983066;28;20168;-78
2023/05/21 07:44:10;;;;;;;7.70;4.50;;;16.80;99.90;;;;;;4996420;28;20124;-78
2023/05/21 07:46:51;;;;;;;8.60;4.82;;;16.80;99.90;;;;;;4977012;28;20034;-78
2023/05/21 07:49:18;;;;;;;10.03;4.60;;;16.90;99.90;;;;;;4977215;28;20046;-78
2023/05/21 07:52:05;;;;;;;8.60;4.63;;;16.90;99.90;;;;;;4989425;28;20304;-78
2023/05/21 07:54:31;;;;;;;7.75;4.35;;;16.90;99.90;;;;;;4989354;28;20453;-79
2023/05/21 07:56:56;;;;;;;8.88;4.22;;;16.90;99.90;;;;;;4988210;28;20051;-79
2023/05/21 07:59:23;;;;;;;8.73;4.68;;;17.20;99.90;;;;;;5002046;28;20045;-78
2023/05/21 08:01:48;;;;;;;8.52;4.50;;;17.00;99.90;;;;;;4988981;28;20406;-80
2023/05/21 08:04:14;;;;;;;9.20;4.47;;;17.30;99.90;;;;;;5009849;28;20025;-78
2023/05/21 08:06:40;;;;;;;8.65;4.28;;;17.30;99.90;;;;;;5001275;28;20111;-79
2023/05/21 08:09:05;;;;;;;7.97;4.00;;;17.10;99.90;;;;;;4993994;28;20038;-78
2023/05/21 08:11:31;;;;;;;8.18;4.68;;;17.10;99.90;;;;;;4987648;28;20038;-81
2023/05/21 08:13:57;;;;;;;7.55;4.28;;;17.10;99.90;;;;;;4992811;28;20048;-80
2023/05/21 08:16:23;;;;;;;8.65;4.47;;;17.40;99.90;;;;;;5010594;28;20502;-79
2023/05/21 08:18:53;;;;;;;6.32;4.53;;;17.20;99.90;;;;;;5013742;28;20050;-78
2023/05/21 08:21:18;;;;;;;9.25;4.60;;;17.20;99.90;;;;;;5008981;28;20130;-79
2023/05/21 08:23:44;;;;;;;9.25;4.32;;;17.50;99.90;;;;;;4979522;28;20073;-78
2023/05/21 08:26:10;;;;;;;7.47;4.30;;;17.50;99.90;;;;;;4980883;28;20474;-78
2023/05/21 08:28:39;;;;;;;7.90;4.30;;;17.90;99.90;;;;;;4996520;28;20409;-79
2023/05/21 08:31:04;;;;;;;8.55;4.40;;;17.40;99.90;;;;;;4996755;28;20077;-79
2023/05/21 08:33:35;;;;;;;8.25;4.65;;;17.30;99.90;;;;;;5006909;28;20125;-78
2023/05/21 08:36:02;;;;;;;9.50;4.88;;;17.60;99.90;;;;;;5011287;28;20050;-79
2023/05/21 08:38:27;;;;;;;13.20;5.43;;;18.00;99.90;;;;;;4994786;28;20037;-80
2023/05/21 08:40:54;;;;;;;11.45;4.97;;;17.40;99.90;;;;;;5012999;28;20478;-79
2023/05/21 08:43:21;;;;;;;8.15;5.07;;;17.30;99.90;;;;;;4979346;28;20038;-80
2023/05/21 08:45:56;;;;;;;8.32;4.95;;;17.30;99.90;;;;;;4972664;28;20076;-79
2023/05/21 08:48:23;;;;;;;9.38;5.03;;;17.40;99.90;;;;;;5000471;28;20052;-79
2023/05/21 08:50:51;;;;;;;7.85;5.40;;;17.40;99.90;;;;;;4996918;28;20101;-80
2023/05/21 08:53:16;;;;;;;11.13;5.10;;;17.50;99.90;;;;;;4993478;28;20046;-81
2023/05/21 08:55:43;;;;;;;12.15;5.13;;;17.60;99.90;;;;;;4997110;28;20125;-81
2023/05/21 08:58:09;;;;;;;7.88;4.65;;;17.50;99.90;;;;;;5004324;28;20049;-80
2023/05/21 09:00:35;;;;;;;8.00;4.70;;;17.80;99.90;;;;;;5003758;28;20057;-80
2023/05/21 09:03:01;;;;;;;10.20;4.82;;;17.90;99.90;;;;;;4996407;28;20041;-80
2023/05/21 09:05:28;;;;;;;8.77;4.53;;;18.00;99.90;;;;;;4994570;28;20394;-80
2023/05/21 09:07:59;;;;;;;9.40;4.60;;;18.00;99.90;;;;;;4975965;28;20052;-80
2023/05/21 09:10:33;;;;;;;8.55;4.90;;;18.10;99.90;;;;;;4995238;28;20043;-79
2023/05/21 09:13:00;;;;;;;7.82;4.70;;;18.90;99.90;;;;;;4996662;28;20048;-80
2023/05/21 09:15:26;;;;;;;8.60;5.05;;;18.30;99.90;;;;;;4986512;28;20104;-80
2023/05/21 09:17:52;;;;;;;7.20;4.45;;;18.40;99.90;;;;;;5006533;28;20037;-79
2023/05/21 09:20:25;;;;;;;8.48;4.97;;;18.50;99.90;;;;;;4988193;28;20042;-80
2023/05/21 09:22:51;;;;;;;10.85;4.78;;;18.50;99.90;;;;;;4994702;28;20038;-81
2023/05/21 09:25:23;;;;;;;9.75;5.00;;;18.60;99.90;;;;;;4980637;28;20383;-80
2023/05/21 09:27:50;;;;;;;7.10;4.95;;;18.60;99.90;;;;;;5005403;28;20095;-80
2023/05/21 09:30:16;;;;;;;6.80;4.60;;;18.90;99.90;;;;;;4975115;28;20449;-80
2023/05/21 09:32:43;;;;;;;9.57;5.30;;;18.80;99.90;;;;;;5011458;28;20118;-80
2023/05/21 09:35:14;;;;;;;8.48;5.00;;;19.00;99.90;;;;;;5000780;28;20034;-82
2023/05/21 09:37:46;;;;;;;10.73;4.97;;;19.00;99.90;;;;;;4996702;28;20034;-82
2023/05/21 09:40:16;;;;;;;6.97;4.85;;;18.90;99.90;;;;;;4998941;28;20415;-81
2023/05/21 09:42:44;;;;;;;7.55;4.80;;;18.90;99.90;;;;;;4995822;28;20537;-81
2023/05/21 09:45:10;;;;;;;9.88;4.45;;;19.30;99.90;;;;;;4970961;28;20042;-81
2023/05/21 09:47:43;;;;;;;7.80;5.07;;;19.00;99.90;;;;;;4979817;28;20596;-81
2023/05/21 09:50:16;;;;;;;8.20;5.32;;;19.10;99.90;;;;;;4990585;28;20102;-81
2023/05/21 09:52:41;;;;;;;8.50;5.30;;;19.20;99.90;;;;;;5011322;28;20049;-81
2023/05/21 09:55:11;;;;;;;9.00;5.00;;;19.30;99.90;;;;;;4979320;28;20026;-81
2023/05/21 09:57:46;;;;;;;11.27;5.20;;;19.20;99.90;;;;;;4996230;28;20499;-81
2023/05/21 10:00:18;;;;;;;8.60;4.80;;;19.20;99.90;;;;;;4979987;28;20509;-81
2023/05/21 10:02:46;;;;;;;9.77;5.18;;;19.80;99.90;;;;;;4996229;28;20030;-82
2023/05/21 10:05:13;;;;;;;6.47;4.90;;;19.70;99.90;;;;;;4994540;28;20100;-81
2023/05/21 10:07:41;;;;;;;11.13;5.57;;;19.30;99.90;;;;;;5010611;28;20042;-79
2023/05/21 10:10:11;;;;;;;445.77;32.05;;;19.90;99.90;;;;;;5011392;28;20038;-80
2023/05/21 10:12:40;;;;;;;93.30;11.57;;;19.40;99.90;;;;;;4985679;28;20037;-80
2023/05/21 10:15:12;;;;;;;30.58;7.72;;;19.80;99.90;;;;;;4996069;28;20109;-77
2023/05/21 10:17:38;;;;;;;;;;;19.90;99.90;;;;;;4977478;28;20466;-80
2023/05/21 10:20:06;;;;;;;9.63;5.55;;;19.60;99.90;;;;;;5006298;28;20270;-79
2023/05/21 10:22:33;;;;;;;9.23;5.75;;;19.80;99.90;;;;;;5021239;28;20033;-79
2023/05/21 10:25:00;;;;;;;10.30;5.90;;;20.20;99.90;;;;;;5013767;28;20038;-79
2023/05/21 10:27:27;;;;;;;8.20;5.97;;;20.20;99.90;;;;;;4978499;28;20034;-79
2023/05/21 10:29:55;;;;;;;9.73;6.10;;;20.50;99.90;;;;;;4994164;28;20129;-82
2023/05/21 10:32:31;;;;;;;12.50;6.60;;;20.80;99.90;;;;;;4978215;28;20045;-81
2023/05/21 10:34:57;;;;;;;10.43;6.57;;;21.60;99.90;;;;;;5011482;28;20115;-80
2023/05/21 10:37:27;;;;;;;10.10;5.78;;;21.50;99.90;;;;;;5011743;28;20326;-80
2023/05/21 10:39:58;;;;;;;7.88;5.60;;;21.10;99.90;;;;;;4982135;28;20038;-80
2023/05/21 10:42:30;;;;;;;10.55;6.35;;;21.30;99.90;;;;;;5000180;28;20029;-80
2023/05/21 10:45:25;;;;;;;9.35;6.15;;;21.40;99.90;;;;;;4978843;28;20121;-80
2023/05/21 10:48:10;;;;;;;8.70;6.55;;;21.50;99.90;;;;;;4994474;28;20402;-80
2023/05/21 10:51:18;;;;;;;11.40;7.90;;;21.70;99.90;;;;;;4976010;28;20042;-80
2023/05/21 10:54:01;;;;;;;20.13;8.65;;;21.80;99.90;;;;;;4963837;28;20124;-80
2023/05/21 10:57:05;;;;;;;11.80;7.63;;;22.20;99.90;;;;;;4977284;28;20034;-80
2023/05/21 10:59:45;;;;;;;11.90;6.40;;;22.30;99.90;;;;;;5012258;28;20049;-80
2023/05/21 11:02:13;;;;;;;9.32;6.80;;;22.50;99.90;;;;;;4994970;28;20037;-80
2023/05/21 11:04:43;;;;;;;13.85;7.85;;;22.80;99.90;;;;;;4992632;28;20173;-80
2023/05/21 11:07:11;;;;;;;10.13;6.35;;;22.90;99.90;;;;;;5003279;28;20041;-80
2023/05/21 11:09:37;;;;;;;13.05;7.85;;;23.00;99.90;;;;;;5012013;28;20041;-80
2023/05/21 11:12:03;;;;;;;9.32;7.22;;;23.00;99.90;;;;;;4978372;28;20494;-80
2023/05/21 11:14:39;;;;;;;10.13;7.68;;;23.10;99.90;;;;;;4992188;28;20041;-81
2023/05/21 11:17:08;;;;;;;9.82;7.10;;;23.10;99.90;;;;;;4994542;28;20041;-80
2023/05/21 11:19:37;;;;;;;11.30;7.30;;;23.20;99.90;;;;;;4993948;28;20041;-81
2023/05/21 11:22:21;;;;;;;16.38;7.72;;;23.30;99.90;;;;;;4980827;28;20080;-80
2023/05/21 11:24:47;;;;;;;12.60;7.68;;;23.30;99.90;;;;;;5010579;28;20038;-81
2023/05/21 11:27:33;;;;;;;11.45;8.18;;;23.30;99.90;;;;;;5009208;28;20379;-80
2023/05/21 11:30:02;;;;;;;10.68;8.57;;;23.20;99.90;;;;;;4990336;28;20511;-81
2023/05/21 11:32:28;;;;;;;13.32;7.82;;;23.20;99.90;;;;;;4994438;28;20048;-80
2023/05/21 11:35:02;;;;;;;11.70;7.63;;;23.40;99.90;;;;;;4981194;28;20534;-81
2023/05/21 11:37:29;;;;;;;11.90;8.63;;;23.20;99.90;;;;;;4976989;28;20041;-81
2023/05/21 11:39:57;;;;;;;12.57;9.35;;;23.30;99.90;;;;;;4991715;28;20039;-81
2023/05/21 11:42:32;;;;;;;14.45;8.38;;;23.30;99.90;;;;;;4979548;28;20041;-81
2023/05/21 11:45:00;;;;;;;14.27;9.90;;;23.40;99.90;;;;;;4981670;28;20030;-81
2023/05/21 11:47:27;;;;;;;13.07;9.90;;;23.30;99.90;;;;;;5012088;28;20115;-81
2023/05/21 11:49:53;;;;;;;14.68;10.80;;;23.30;99.90;;;;;;4985031;28;20054;-81
2023/05/21 11:52:19;;;;;;;11.98;8.23;;;23.30;99.90;;;;;;4981664;28;20038;-81
2023/05/21 11:54:50;;;;;;;11.00;8.75;;;23.30;99.90;;;;;;4995412;28;20069;-81
2023/05/21 11:57:20;;;;;;;12.13;9.18;;;23.40;99.90;;;;;;4991530;28;20030;-81
2023/05/21 11:59:45;;;;;;;11.68;8.77;;;23.60;99.90;;;;;;5010496;28;20052;-81
2023/05/21 12:02:19;;;;;;;10.65;7.80;;;23.70;99.90;;;;;;4981029;28;20037;-82
2023/05/21 12:04:49;;;;;;;22.58;17.42;;;23.90;99.90;;;;;;5001373;28;20039;-81
2023/05/21 12:07:16;;;;;;;33.70;30.15;;;24.30;99.90;;;;;;4980100;28;20029;-80
2023/05/21 12:09:49;;;;;;;71.80;64.00;;;24.20;99.90;;;;;;4987342;28;20036;-81
2023/05/21 12:12:17;;;;;;;20.75;16.90;;;25.20;99.90;;;;;;4997816;28;20121;-81
2023/05/21 12:14:47;;;;;;;14.23;12.18;;;25.40;99.90;;;;;;4994503;28;20041;-81
2023/05/21 12:17:31;;;;;;;12.73;10.20;;;25.40;99.30;;;;;;5016335;28;20038;-81
2023/05/21 12:19:58;;;;;;;11.70;10.45;;;25.40;99.50;;;;;;5004000;28;20084;-81
2023/05/21 12:22:24;;;;;;;13.60;10.57;;;25.30;99.40;;;;;;4997213;28;20045;-81
2023/05/21 12:24:50;;;;;;;15.77;10.40;;;25.40;99.20;;;;;;5012841;28;20041;-82
2023/05/21 12:27:16;;;;;;;15.10;10.32;;;25.40;99.10;;;;;;5014797;28;20030;-81
2023/05/21 12:29:45;;;;;;;13.95;9.57;;;25.40;99.00;;;;;;4997221;28;20121;-81
2023/05/21 12:32:13;;;;;;;12.35;9.43;;;25.50;99.00;;;;;;4999320;28;20053;-81
2023/05/21 12:34:50;;;;;;;11.82;9.80;;;25.60;98.90;;;;;;4996235;28;20383;-81
2023/05/21 12:37:19;;;;;;;13.90;9.38;;;25.60;98.30;;;;;;4975426;28;20041;-80
2023/05/21 12:39:46;;;;;;;12.75;10.02;;;25.60;98.60;;;;;;4995993;28;20041;-80
2023/05/21 12:42:13;;;;;;;15.65;10.65;;;25.70;98.40;;;;;;4994535;28;20545;-80
2023/05/21 12:44:45;;;;;;;13.02;9.75;;;25.70;98.20;;;;;;4975977;28;20041;-80
2023/05/21 12:47:12;;;;;;;12.30;9.00;;;25.70;97.90;;;;;;5001393;28;20088;-80